Terminal Aerodrome Forecast
Issued by NWS

Home | Current Version | Previous Version | Text Only | Print | Product List | Glossary On
Versions: 1 2 3 4 5 6 7 8 9 10 11 12 13 14 15 16
000
FTUS46 KOTX 182339
TAFSFF
TAF
KSFF 182339Z 1900/1924 19009KT P6SM -RA SCT020 BKN050 OVC080
     FM190200 20011KT P6SM -RA OVC060
     FM190600 20013KT P6SM OVC080 WS020/22045KT
     FM191300 20011G17KT P6SM -RA SCT025 OVC040=

USA.gov is the U.S. government's official web portal to all federal, state and local government web resources and services.